Elista Airport
URWI : now visible

Airfield :











YOU CAN JOIN US ON...

 
LOGIN :

Register | Disclaimer

   EN    FR    IT 

 









Legend :    VFR   Marginal VFR   IFR   Intensive IFR   Very Intensive IFR
Visi :
Ceiling :
>= 8 km
>= 3000ft
5 to 8 km
1000 to 3000 ft
1500m to 5 km
500 to 1000 ft
800 to 1500m
200 to 500 ft
< 800m
< 200 ft
Symbols :   Thunderstorms  Fog  Heavy snow  Heavy precipitations  Wind > 20 kt






- Airport Elevation : 501 ft
- IATA code : ESL


URWI - Elista

CURRENT METAR :
  • 091830Z AUTO 29007MPS 9999 // ///062/// 25/12 Q1012

EXPIRED METARs :
  • 091800Z AUTO 28007MPS 9999 // ///087/// 26/12 Q1012
  • 091730Z 28007MPS CAVOK 26/12 Q1012 NOSIG
  • 091700Z 29008MPS CAVOK 27/11 Q1011 TEMPO -TSRA SCT030CB
  • 091630Z 28008MPS CAVOK 28/11 Q1011 TEMPO -TSRA SCT030CB
  • 091600Z 29009MPS CAVOK 29/12 Q1011 TEMPO -TSRA SCT030CB

TAF TAF URWI
Valid from the 09 at 15:00 until the 10 at 00:00 UTC


091400Z 0915/0924 30006G13MPS 9999 SCT030CB
TEMPO 0915/0924 6000 -SHRA SCT016 SCT030CB
PROB40
TEMPO 0915/0924 -TSRAGR
URRV FIR / Europe



MET'MAP, your aeronautical weather chart ! - Copyright ORBIFLY December 2007 - Disclaimer

ORBIFLY MET'MAP TEAM :

Programming & Development : Alexandra Zaïnal
Concept & original design : Baudouin d'Aumeries
Assistance for programming : Marc-Olivier Méhu
Technical & hardware support : Manuel Goepfert

Contact : metmap@orbifly.com




SOURCES & CREDITS :

   NOAA       Earth
Advisory